Time;durP1;ratioP1;P1;durP2;ratioP2;P2;SDS_P1;SDS_P2;PMS_P1;PMS_P2;Temp;Humidity;BMP_temperature;BMP_pressure;BME280_temperature;BME280_humidity;BME280_pressure;Samples;Min_cycle;Max_cycle;Signal;HPM_P1;HPM_P2
2022/03/21 00:01:29;;;;;;;15.47;6.73;;;;;;;;;;6298649;22;20169;-88
2022/03/21 00:04:36;;;;;;;15.73;7.13;;;;;;;;;;6315347;22;20165;-88
2022/03/21 01:23:57;;;;;;;13.23;6.40;;;;;;;;;;6235138;22;20838;31
2022/03/21 01:27:03;;;;;;;15.27;6.23;;;;;;;;;;6236832;22;20174;-88
2022/03/21 01:30:09;;;;;;;13.37;6.33;;;;;;;;;;6255383;23;20163;-87
2022/03/21 01:33:15;;;;;;;13.57;6.53;;;;;;;;;;6237240;23;20166;-87
2022/03/21 01:36:19;;;;;;;17.13;6.97;;;;;;;;;;6235753;23;20206;-88
2022/03/21 01:39:25;;;;;;;17.23;6.40;;;;;;;;;;6255731;22;20150;-86
2022/03/21 01:42:32;;;;;;;13.83;6.50;;;;;;;;;;6255228;22;20245;-86
2022/03/21 01:45:37;;;;;;;13.53;5.93;;;;;;;;;;6237764;23;20166;-86
2022/03/21 01:48:42;;;;;;;14.83;6.70;;;;;;;;;;6238523;23;20170;-84
2022/03/21 01:51:47;;;;;;;15.43;6.67;;;;;;;;;;6237589;23;20656;-86
2022/03/21 01:58:17;;;;;;;14.13;6.20;;;;;;;;;;6250725;23;20170;-88
2022/03/21 02:01:22;;;;;;;13.90;6.53;;;;;;;;;;6252681;23;20217;-87
2022/03/21 02:04:27;;;;;;;14.70;6.93;;;;;;;;;;6234270;23;20617;-88
2022/03/21 02:07:31;;;;;;;19.67;7.83;;;;;;;;;;6234301;23;20248;-86
2022/03/21 02:10:36;;;;;;;13.37;6.47;;;;;;;;;;6252311;23;20193;-88
2022/03/21 02:13:43;;;;;;;14.47;6.77;;;;;;;;;;6235155;23;20187;-87
2022/03/21 02:16:53;;;;;;;16.83;6.67;;;;;;;;;;6250860;23;20214;-89
2022/03/21 02:20:01;;;;;;;12.77;6.20;;;;;;;;;;6234959;23;20210;-87
2022/03/21 02:23:09;;;;;;;16.93;7.10;;;;;;;;;;6234587;23;20171;-85
2022/03/21 02:26:16;;;;;;;12.63;6.07;;;;;;;;;;6250987;23;20190;-88
2022/03/21 02:29:22;;;;;;;18.30;6.63;;;;;;;;;;6252274;23;20170;-87
2022/03/21 02:32:28;;;;;;;13.17;6.40;;;;;;;;;;6252112;23;20178;-88
2022/03/21 02:35:34;;;;;;;13.03;6.23;;;;;;;;;;6251398;23;20227;-89
2022/03/21 02:38:39;;;;;;;16.10;5.97;;;;;;;;;;6250252;23;20665;-86
2022/03/21 02:41:45;;;;;;;15.63;6.70;;;;;;;;;;6249921;23;20193;-87
2022/03/21 02:44:50;;;;;;;12.47;6.00;;;;;;;;;;6233004;23;20185;-88
2022/03/21 02:47:55;;;;;;;14.53;6.70;;;;;;;;;;6251099;23;20492;-87
2022/03/21 02:51:01;;;;;;;18.47;6.80;;;;;;;;;;6250294;23;20221;-87
2022/03/21 02:54:06;;;;;;;18.07;7.20;;;;;;;;;;6252517;23;20205;-88
2022/03/21 02:57:12;;;;;;;13.53;6.47;;;;;;;;;;6250554;23;20268;-88
2022/03/21 03:00:17;;;;;;;14.70;6.47;;;;;;;;;;6233697;23;20701;-87
2022/03/21 03:03:22;;;;;;;16.83;6.90;;;;;;;;;;6250479;23;20217;-87
2022/03/21 03:06:28;;;;;;;15.10;6.97;;;;;;;;;;6249720;23;20165;-89
2022/03/21 03:09:34;;;;;;;15.50;6.57;;;;;;;;;;6233747;23;20167;-87
2022/03/21 03:12:40;;;;;;;14.00;6.60;;;;;;;;;;6233351;23;20166;-87
2022/03/21 03:15:47;;;;;;;18.27;6.40;;;;;;;;;;6250588;23;20281;-88
2022/03/21 03:18:52;;;;;;;12.60;6.60;;;;;;;;;;6232142;23;20170;-89
2022/03/21 03:21:57;;;;;;;16.37;6.30;;;;;;;;;;6250158;23;20507;-89
2022/03/21 03:25:02;;;;;;;15.80;6.67;;;;;;;;;;6249652;23;20216;-88
2022/03/21 03:28:08;;;;;;;17.93;7.17;;;;;;;;;;6250147;23;20220;-87
2022/03/21 03:31:14;;;;;;;15.53;6.63;;;;;;;;;;6249556;23;20625;-87
2022/03/21 03:34:19;;;;;;;13.00;6.57;;;;;;;;;;6249515;23;20179;-87
2022/03/21 03:37:24;;;;;;;14.10;6.50;;;;;;;;;;6250733;23;20166;-88
2022/03/21 03:40:29;;;;;;;15.27;6.13;;;;;;;;;;6233271;23;20150;-87
2022/03/21 03:43:36;;;;;;;12.43;5.67;;;;;;;;;;6251192;23;20170;-87
2022/03/21 03:46:41;;;;;;;15.20;6.60;;;;;;;;;;6250499;23;20190;-88
2022/03/21 03:49:46;;;;;;;16.17;6.33;;;;;;;;;;6251040;23;20177;-88
2022/03/21 03:52:50;;;;;;;16.00;6.30;;;;;;;;;;6250095;23;20169;-87
2022/03/21 03:55:55;;;;;;;13.47;6.53;;;;;;;;;;6248594;23;20180;-87
2022/03/21 03:59:02;;;;;;;15.47;6.40;;;;;;;;;;6232044;23;20162;-86
2022/03/21 04:02:08;;;;;;;14.23;6.17;;;;;;;;;;6231511;23;20171;-88
2022/03/21 04:05:14;;;;;;;14.17;6.13;;;;;;;;;;6249381;23;20178;-87
2022/03/21 04:08:19;;;;;;;16.17;6.50;;;;;;;;;;6231909;23;20194;-87
2022/03/21 04:11:24;;;;;;;14.67;6.00;;;;;;;;;;6250400;23;20174;-86
2022/03/21 04:14:30;;;;;;;18.53;6.67;;;;;;;;;;6232253;23;20170;-86
2022/03/21 04:17:36;;;;;;;16.87;5.77;;;;;;;;;;6232773;23;20167;-87
2022/03/21 04:20:41;;;;;;;15.77;6.30;;;;;;;;;;6250448;23;20171;-88
2022/03/21 04:23:46;;;;;;;15.53;6.63;;;;;;;;;;6249776;23;20170;-87
2022/03/21 04:26:51;;;;;;;13.23;6.07;;;;;;;;;;6250249;23;20191;-87
2022/03/21 04:29:57;;;;;;;14.60;6.53;;;;;;;;;;6232600;23;20296;-87
2022/03/21 04:33:02;;;;;;;14.60;6.60;;;;;;;;;;6250185;23;20675;-86
2022/03/21 04:36:07;;;;;;;14.73;6.20;;;;;;;;;;6231158;23;20170;-88
2022/03/21 04:39:12;;;;;;;20.30;6.63;;;;;;;;;;6250520;23;20169;-86
2022/03/21 04:42:17;;;;;;;14.63;6.50;;;;;;;;;;6249561;23;20166;-88
2022/03/21 04:45:24;;;;;;;15.33;5.97;;;;;;;;;;6250206;23;20169;-86
2022/03/21 04:48:29;;;;;;;13.57;5.93;;;;;;;;;;6233219;23;20198;-87
2022/03/21 04:51:33;;;;;;;14.23;6.47;;;;;;;;;;6232518;23;20191;-86
2022/03/21 04:54:38;;;;;;;18.97;7.00;;;;;;;;;;6252617;23;20165;-86
2022/03/21 04:57:43;;;;;;;19.87;6.70;;;;;;;;;;6233902;23;20175;-86
2022/03/21 05:00:51;;;;;;;16.67;7.07;;;;;;;;;;6251098;23;20175;-86
2022/03/21 05:03:56;;;;;;;13.27;5.90;;;;;;;;;;6234367;23;20241;-86
2022/03/21 05:07:01;;;;;;;16.43;5.83;;;;;;;;;;6252296;23;20191;-86
2022/03/21 05:10:07;;;;;;;13.10;6.40;;;;;;;;;;6252544;23;20162;-87
2022/03/21 05:13:12;;;;;;;13.90;6.30;;;;;;;;;;6251531;23;20170;-85
2022/03/21 05:16:18;;;;;;;14.00;5.13;;;;;;;;;;6252834;23;20170;-85
2022/03/21 05:19:24;;;;;;;14.37;5.63;;;;;;;;;;6234969;23;20174;-86
2022/03/21 05:22:29;;;;;;;14.57;6.17;;;;;;;;;;6253593;22;20505;-88
2022/03/21 05:32:22;;;;;;;15.50;7.07;;;;;;;;;;6254532;23;20186;-85
2022/03/21 05:38:49;;;;;;;19.33;6.87;;;;;;;;;;6255595;23;20338;-87
2022/03/21 05:41:55;;;;;;;17.70;7.13;;;;;;;;;;6236206;23;20170;-86
2022/03/21 05:45:00;;;;;;;15.20;7.03;;;;;;;;;;6235302;23;20175;-87
2022/03/21 05:51:33;;;;;;;20.10;7.07;;;;;;;;;;6253660;23;20637;-88
2022/03/21 05:54:38;;;;;;;18.97;6.77;;;;;;;;;;6254652;23;20509;-88
2022/03/21 05:57:43;;;;;;;16.43;7.07;;;;;;;;;;6255224;23;20209;-88
2022/03/21 06:00:48;;;;;;;16.20;7.23;;;;;;;;;;6235330;23;20244;-87
2022/03/21 06:03:55;;;;;;;15.70;7.00;;;;;;;;;;6236984;23;20245;-88
2022/03/21 06:07:00;;;;;;;14.53;7.07;;;;;;;;;;6235141;22;20567;-87
2022/03/21 06:10:05;;;;;;;14.60;6.70;;;;;;;;;;6237425;23;20174;-86
2022/03/21 06:13:10;;;;;;;16.37;6.60;;;;;;;;;;6255272;23;20294;-87
2022/03/21 06:16:20;;;;;;;15.13;6.40;;;;;;;;;;6252414;23;20195;-86
2022/03/21 06:19:27;;;;;;;15.13;6.97;;;;;;;;;;6237788;23;20158;-88
2022/03/21 06:22:32;;;;;;;23.60;7.87;;;;;;;;;;6254317;23;20186;-89
2022/03/21 06:25:39;;;;;;;16.43;7.57;;;;;;;;;;6252955;23;20274;-85
2022/03/21 06:28:45;;;;;;;18.63;7.73;;;;;;;;;;6256378;23;20297;-87
2022/03/21 06:31:50;;;;;;;16.93;6.80;;;;;;;;;;6238420;23;20165;-88
2022/03/21 06:34:57;;;;;;;24.53;8.20;;;;;;;;;;6256569;23;20174;-87
2022/03/21 06:38:02;;;;;;;14.73;7.17;;;;;;;;;;6255936;23;20170;-87
2022/03/21 06:41:08;;;;;;;16.57;7.60;;;;;;;;;;6256093;23;20502;-87
2022/03/21 06:44:14;;;;;;;15.90;6.87;;;;;;;;;;6236460;23;20171;-86
2022/03/21 06:47:19;;;;;;;20.10;6.97;;;;;;;;;;6237736;23;20198;-87
2022/03/21 06:50:26;;;;;;;25.97;7.87;;;;;;;;;;6255776;23;20231;-87
2022/03/21 06:53:31;;;;;;;19.13;7.63;;;;;;;;;;6253569;22;20637;-88
2022/03/21 06:56:36;;;;;;;16.87;7.63;;;;;;;;;;6254354;23;20519;-87
2022/03/21 06:59:41;;;;;;;23.00;9.47;;;;;;;;;;6253966;23;20512;-86
2022/03/21 07:02:47;;;;;;;16.80;7.80;;;;;;;;;;6255969;23;20166;-86
2022/03/21 07:05:58;;;;;;;23.43;8.47;;;;;;;;;;6259507;23;20169;-85
2022/03/21 07:09:04;;;;;;;18.97;7.47;;;;;;;;;;6253393;23;20197;-87
2022/03/21 07:12:10;;;;;;;18.97;7.67;;;;;;;;;;6253687;23;20158;-87
2022/03/21 07:15:16;;;;;;;18.43;7.93;;;;;;;;;;6253901;23;20504;-86
2022/03/21 07:18:25;;;;;;;18.33;7.63;;;;;;;;;;6255636;23;20241;-88
2022/03/21 07:21:31;;;;;;;16.83;7.10;;;;;;;;;;6237003;23;20305;-86
2022/03/21 07:24:36;;;;;;;17.57;7.80;;;;;;;;;;6254002;23;20189;-87
2022/03/21 07:27:45;;;;;;;18.00;7.03;;;;;;;;;;6238228;23;20201;-88
2022/03/21 07:30:50;;;;;;;19.53;9.13;;;;;;;;;;6235524;23;20243;-88
2022/03/21 07:33:56;;;;;;;16.80;7.70;;;;;;;;;;6251708;23;20166;-88
2022/03/21 07:37:02;;;;;;;158.70;39.83;;;;;;;;;;6234466;23;20186;-86
2022/03/21 07:40:10;;;;;;;18.43;7.27;;;;;;;;;;6234095;23;20165;-88
2022/03/21 07:43:15;;;;;;;16.73;7.67;;;;;;;;;;6254182;23;20175;-87
2022/03/21 07:49:43;;;;;;;17.37;6.80;;;;;;;;;;6255795;23;20166;-88
2022/03/21 07:52:49;;;;;;;20.17;7.23;;;;;;;;;;6254073;23;20174;-87
2022/03/21 07:55:54;;;;;;;15.93;6.87;;;;;;;;;;6238541;22;20622;-87
2022/03/21 07:59:03;;;;;;;19.03;7.57;;;;;;;;;;6236111;23;20493;-87
2022/03/21 08:02:09;;;;;;;15.83;8.60;;;;;;;;;;6236294;22;20162;-85
2022/03/21 08:05:14;;;;;;;19.30;7.13;;;;;;;;;;6237891;22;20505;-85
2022/03/21 08:08:21;;;;;;;20.50;7.33;;;;;;;;;;6254715;22;20194;-87
2022/03/21 08:11:26;;;;;;;23.47;9.50;;;;;;;;;;6239323;23;20167;-87
2022/03/21 08:14:31;;;;;;;17.10;7.23;;;;;;;;;;6256570;22;20614;-87
2022/03/21 08:18:03;;;;;;;14.53;6.73;;;;;;;;;;6257515;23;20170;-87
2022/03/21 08:21:09;;;;;;;14.80;5.97;;;;;;;;;;6259094;22;20170;-86
2022/03/21 08:24:15;;;;;;;16.57;6.57;;;;;;;;;;6241094;23;20190;-85
2022/03/21 08:27:20;;;;;;;15.77;5.57;;;;;;;;;;6256523;22;20166;-89
2022/03/21 08:30:27;;;;;;;13.43;5.13;;;;;;;;;;6257821;22;20167;-88
2022/03/21 08:33:32;;;;;;;13.03;6.10;;;;;;;;;;6260948;23;20183;-89
2022/03/21 08:36:38;;;;;;;12.60;6.30;;;;;;;;;;6261568;22;20615;-86
2022/03/21 08:39:45;;;;;;;14.50;6.00;;;;;;;;;;6263890;22;20170;-88
2022/03/21 08:42:50;;;;;;;10.63;5.30;;;;;;;;;;6263260;22;20535;-87
2022/03/21 08:45:55;;;;;;;10.30;5.53;;;;;;;;;;6243032;23;20163;-88
2022/03/21 08:52:24;;;;;;;10.82;5.10;;;;;;;;;;6260447;22;20198;-88
2022/03/21 08:55:30;;;;;;;12.77;5.65;;;;;;;;;;6259611;22;20223;-86
2022/03/21 08:58:35;;;;;;;10.55;5.13;;;;;;;;;;6259461;22;20241;-88
2022/03/21 09:01:41;;;;;;;10.23;5.13;;;;;;;;;;6261796;22;20286;-88
2022/03/21 09:04:46;;;;;;;12.13;5.07;;;;;;;;;;6243519;23;20193;-89
2022/03/21 09:07:51;;;;;;;12.90;5.18;;;;;;;;;;6262933;22;20291;-89
2022/03/21 09:10:59;;;;;;;9.73;5.32;;;;;;;;;;6243924;22;20170;-88
2022/03/21 09:14:04;;;;;;;8.35;4.75;;;;;;;;;;6260851;22;20166;-87
2022/03/21 09:17:13;;;;;;;11.45;5.03;;;;;;;;;;6243224;22;20499;-88
2022/03/21 09:20:18;;;;;;;8.90;4.93;;;;;;;;;;6260723;22;20549;-88
2022/03/21 09:23:23;;;;;;;10.20;4.90;;;;;;;;;;6239387;22;20226;-90
2022/03/21 09:26:30;;;;;;;9.32;5.13;;;;;;;;;;6240485;22;20173;-87
2022/03/21 09:29:34;;;;;;;7.88;4.85;;;;;;;;;;6260756;22;20290;-89
2022/03/21 09:32:39;;;;;;;10.25;4.93;;;;;;;;;;6263135;23;20498;-89
2022/03/21 09:35:47;;;;;;;8.75;4.72;;;;;;;;;;6261290;22;20170;-90
2022/03/21 09:38:52;;;;;;;8.00;4.63;;;;;;;;;;6242271;23;20190;-89
2022/03/21 09:41:59;;;;;;;7.05;4.15;;;;;;;;;;6260362;22;20153;-88
2022/03/21 09:45:06;;;;;;;8.25;4.45;;;;;;;;;;6244500;22;20167;-88
2022/03/21 09:48:16;;;;;;;9.27;4.32;;;;;;;;;;6262145;22;20178;-88
2022/03/21 09:51:22;;;;;;;8.38;4.22;;;;;;;;;;6261978;23;20167;-89
2022/03/21 09:54:28;;;;;;;6.03;4.38;;;;;;;;;;6243334;23;20178;-88
2022/03/21 09:57:35;;;;;;;9.77;4.25;;;;;;;;;;6262640;22;20170;-88
2022/03/21 10:00:41;;;;;;;6.57;4.10;;;;;;;;;;6260569;22;20166;-89
2022/03/21 10:03:46;;;;;;;6.80;3.90;;;;;;;;;;6241979;23;20171;-90
2022/03/21 10:07:00;;;;;;;9.82;4.18;;;;;;;;;;6240985;23;20233;-89
2022/03/21 10:10:09;;;;;;;9.25;4.18;;;;;;;;;;6240398;23;20182;-87
2022/03/21 10:13:16;;;;;;;7.53;4.20;;;;;;;;;;6257506;22;20171;-87
2022/03/21 10:16:21;;;;;;;8.02;3.75;;;;;;;;;;6260486;22;20156;-89
2022/03/21 10:19:27;;;;;;;8.88;4.15;;;;;;;;;;6262251;22;20198;-89
2022/03/21 10:22:43;;;;;;;5.47;3.63;;;;;;;;;;6261168;22;20182;-89
2022/03/21 10:25:48;;;;;;;6.53;4.00;;;;;;;;;;6242898;23;20190;-86
2022/03/21 10:28:56;;;;;;;5.57;3.80;;;;;;;;;;6245652;22;20194;-89
2022/03/21 10:32:02;;;;;;;9.43;4.57;;;;;;;;;;6248295;22;20244;-89
2022/03/21 10:35:08;;;;;;;9.10;4.38;;;;;;;;;;6247898;23;20166;-88
2022/03/21 10:38:14;;;;;;;7.43;4.50;;;;;;;;;;6248492;23;20198;-88
2022/03/21 10:41:19;;;;;;;5.95;3.90;;;;;;;;;;6266318;22;20210;-88
2022/03/21 10:44:26;;;;;;;8.02;4.18;;;;;;;;;;6248094;23;20213;-88
2022/03/21 10:47:32;;;;;;;10.57;5.70;;;;;;;;;;6262111;23;20150;-87
2022/03/21 10:50:37;;;;;;;6.38;3.88;;;;;;;;;;6246788;22;20167;-89
2022/03/21 10:53:43;;;;;;;9.10;4.32;;;;;;;;;;6259406;23;20166;-89
2022/03/21 10:56:49;;;;;;;5.35;3.75;;;;;;;;;;6259572;22;20721;-88
2022/03/21 11:00:12;;;;;;;5.32;3.83;;;;;;;;;;6259211;23;20189;-90
2022/03/21 11:03:18;;;;;;;11.65;4.25;;;;;;;;;;6243547;22;20154;-89
2022/03/21 11:06:23;;;;;;;6.07;4.00;;;;;;;;;;6262605;22;20222;-89
2022/03/21 11:09:28;;;;;;;7.03;4.40;;;;;;;;;;6259564;22;20185;-90
2022/03/21 11:12:34;;;;;;;6.25;4.00;;;;;;;;;;6262612;22;20175;-90
2022/03/21 11:15:41;;;;;;;10.43;5.00;;;;;;;;;;6257940;22;20189;-90
2022/03/21 11:18:47;;;;;;;8.15;4.53;;;;;;;;;;6256789;23;20258;-88
2022/03/21 11:21:57;;;;;;;8.20;4.22;;;;;;;;;;6258584;22;20175;-88
2022/03/21 11:25:03;;;;;;;6.65;4.47;;;;;;;;;;6258805;22;20293;-90
2022/03/21 11:28:37;;;;;;;10.20;4.65;;;;;;;;;;6257860;22;20162;-90
2022/03/21 11:32:04;;;;;;;8.35;4.18;;;;;;;;;;6257996;23;20170;-88
2022/03/21 11:35:12;;;;;;;9.05;4.82;;;;;;;;;;6259822;22;20235;-89
2022/03/21 11:38:24;;;;;;;8.27;4.50;;;;;;;;;;6258085;23;20217;-90
2022/03/21 11:41:31;;;;;;;10.07;5.00;;;;;;;;;;6242395;23;20210;-89
2022/03/21 11:44:36;;;;;;;12.18;4.95;;;;;;;;;;6240623;22;20167;-89
2022/03/21 11:47:42;;;;;;;7.95;4.38;;;;;;;;;;6258399;22;20158;-89
2022/03/21 11:50:50;;;;;;;8.00;4.57;;;;;;;;;;6239959;22;20169;-88
2022/03/21 11:53:56;;;;;;;6.88;4.13;;;;;;;;;;6255845;22;20167;-90
2022/03/21 11:57:03;;;;;;;6.45;4.53;;;;;;;;;;6256535;22;20158;-90
2022/03/21 12:00:22;;;;;;;11.43;4.60;;;;;;;;;;6258354;22;20852;-87
2022/03/21 12:03:27;;;;;;;7.35;4.53;;;;;;;;;;6238261;22;20158;-89
2022/03/21 12:06:34;;;;;;;8.60;5.00;;;;;;;;;;6239890;22;20183;-88
2022/03/21 12:09:43;;;;;;;6.93;4.25;;;;;;;;;;6237067;23;20166;-90
2022/03/21 12:12:54;;;;;;;8.15;4.78;;;;;;;;;;6255835;22;20235;-89
2022/03/21 12:16:02;;;;;;;8.57;4.88;;;;;;;;;;6256904;22;20170;-90
2022/03/21 12:19:07;;;;;;;8.70;4.47;;;;;;;;;;6239329;23;20205;-90
2022/03/21 12:22:32;;;;;;;9.20;4.45;;;;;;;;;;6239847;23;20234;-88
2022/03/21 12:25:47;;;;;;;9.82;4.75;;;;;;;;;;6256830;22;20313;-89
2022/03/21 12:32:26;;;;;;;8.15;4.55;;;;;;;;;;6255718;22;20654;-88
2022/03/21 12:35:50;;;;;;;9.18;4.93;;;;;;;;;;6241002;22;20170;-90
2022/03/21 12:38:56;;;;;;;8.43;4.70;;;;;;;;;;6260351;22;20243;-89
2022/03/21 12:42:03;;;;;;;9.55;4.40;;;;;;;;;;6259257;22;20220;-89
2022/03/21 12:45:08;;;;;;;7.57;4.85;;;;;;;;;;6258252;23;20166;-87
2022/03/21 12:48:14;;;;;;;7.03;4.55;;;;;;;;;;6242939;22;20166;-89
2022/03/21 12:51:31;;;;;;;12.40;4.53;;;;;;;;;;6259415;22;20406;-89
2022/03/21 12:54:47;;;;;;;6.68;4.35;;;;;;;;;;6259749;22;20171;-91
2022/03/21 12:57:57;;;;;;;12.27;4.47;;;;;;;;;;6260335;22;20248;-89
2022/03/21 13:01:03;;;;;;;10.40;4.63;;;;;;;;;;6259899;23;20185;-89
2022/03/21 13:10:56;;;;;;;10.02;4.70;;;;;;;;;;6257460;22;20190;-88
2022/03/21 13:14:03;;;;;;;9.88;4.90;;;;;;;;;;6239971;22;20773;-87
2022/03/21 13:17:10;;;;;;;12.68;4.53;;;;;;;;;;6257524;22;20670;-89
2022/03/21 13:20:17;;;;;;;7.93;4.20;;;;;;;;;;6258862;23;20270;-89
2022/03/21 13:23:24;;;;;;;8.02;4.50;;;;;;;;;;6241788;23;20170;-88
2022/03/21 13:26:29;;;;;;;7.07;4.70;;;;;;;;;;6242560;23;20214;-91
2022/03/21 13:29:39;;;;;;;7.47;4.28;;;;;;;;;;6260340;23;20174;-87
2022/03/21 13:32:49;;;;;;;10.63;4.75;;;;;;;;;;6242294;22;20154;-87
2022/03/21 13:35:55;;;;;;;7.75;4.68;;;;;;;;;;6257626;23;20150;-89
2022/03/21 13:39:13;;;;;;;6.72;4.57;;;;;;;;;;6258009;23;20213;-89
2022/03/21 13:42:23;;;;;;;8.55;4.65;;;;;;;;;;6239349;23;20169;-89
2022/03/21 13:45:29;;;;;;;5.82;3.92;;;;;;;;;;6237108;23;20574;-87
2022/03/21 13:48:36;;;;;;;11.27;4.43;;;;;;;;;;6256599;22;20150;-89
2022/03/21 13:51:44;;;;;;;11.07;5.05;;;;;;;;;;6254561;22;20542;-88
2022/03/21 13:54:53;;;;;;;8.23;4.28;;;;;;;;;;6238596;23;20245;-89
2022/03/21 13:58:01;;;;;;;7.88;4.28;;;;;;;;;;6257290;22;20187;-89
2022/03/21 14:01:20;;;;;;;8.02;4.28;;;;;;;;;;6256140;23;20210;-90
2022/03/21 14:04:25;;;;;;;8.93;4.25;;;;;;;;;;6259315;22;20293;-90
2022/03/21 14:07:33;;;;;;;11.05;4.93;;;;;;;;;;6238738;23;20174;-88
2022/03/21 14:10:39;;;;;;;7.18;4.38;;;;;;;;;;6258408;23;20170;-88
2022/03/21 14:13:46;;;;;;;8.77;4.50;;;;;;;;;;6256962;22;20178;-89
2022/03/21 14:16:54;;;;;;;8.27;4.68;;;;;;;;;;6237705;23;20162;-88
2022/03/21 14:20:00;;;;;;;9.73;4.40;;;;;;;;;;6255914;22;20198;-86
2022/03/21 14:23:05;;;;;;;14.65;4.80;;;;;;;;;;6256359;22;20163;-89
2022/03/21 14:29:32;;;;;;;22.08;8.25;;;;;;;;;;6256671;22;20170;-89
2022/03/21 14:32:39;;;;;;;13.45;5.05;;;;;;;;;;6238394;23;20171;-87
2022/03/21 14:35:44;;;;;;;12.02;5.70;;;;;;;;;;6256795;22;20151;-88
2022/03/21 14:38:49;;;;;;;17.08;5.70;;;;;;;;;;6256982;22;20161;-88
2022/03/21 14:41:54;;;;;;;10.48;4.97;;;;;;;;;;6257915;22;20595;-90
2022/03/21 14:45:03;;;;;;;9.57;5.10;;;;;;;;;;6255946;22;20170;-90
2022/03/21 14:48:09;;;;;;;9.40;4.85;;;;;;;;;;6259368;22;20605;-88
2022/03/21 14:51:14;;;;;;;12.30;5.25;;;;;;;;;;6258093;22;20166;-90
2022/03/21 14:54:19;;;;;;;13.50;5.20;;;;;;;;;;6259588;22;20174;-90
2022/03/21 14:57:25;;;;;;;10.30;4.82;;;;;;;;;;6258830;23;20183;-90
2022/03/21 15:00:30;;;;;;;7.07;4.72;;;;;;;;;;6239103;23;20190;-89
2022/03/21 15:03:38;;;;;;;16.48;5.10;;;;;;;;;;6256926;22;20181;-86
2022/03/21 15:06:43;;;;;;;9.73;5.18;;;;;;;;;;6254981;23;20618;-89
2022/03/21 15:13:12;;;;;;;10.45;5.35;;;;;;;;;;6268034;22;20163;-87
2022/03/21 15:16:19;;;;;;;10.57;4.90;;;;;;;;;;6267571;22;20154;-89
2022/03/21 16:50:01;;;;;;;10.15;4.95;;;;;;;;;;6275954;22;20210;-88
2022/03/21 16:53:06;;;;;;;15.02;4.25;;;;;;;;;;6300076;22;20165;-89
2022/03/21 16:56:12;;;;;;;8.57;3.90;;;;;;;;;;6315152;22;20169;-88
2022/03/21 16:59:18;;;;;;;11.68;4.20;;;;;;;;;;6298483;22;20208;-90
2022/03/21 17:02:25;;;;;;;10.95;5.18;;;;;;;;;;6318183;22;20239;-87
2022/03/21 17:05:33;;;;;;;17.40;6.80;;;;;;;;;;6315533;22;20165;-88
2022/03/21 17:08:38;;;;;;;13.90;7.32;;;;;;;;;;6297056;22;20173;-88
2022/03/21 17:11:43;;;;;;;12.90;6.95;;;;;;;;;;6315577;22;20169;-87
2022/03/21 17:14:49;;;;;;;38.60;15.25;;;;;;;;;;6317205;22;20545;-89
2022/03/21 17:24:53;;;;;;;16.90;5.03;;;;;;;;;;6320295;22;20181;-88
2022/03/21 17:28:00;;;;;;;12.52;5.07;;;;;;;;;;6319796;22;20165;-89
2022/03/21 17:31:05;;;;;;;9.48;4.85;;;;;;;;;;6318778;22;20177;-86
2022/03/21 17:34:11;;;;;;;8.52;4.40;;;;;;;;;;6319132;22;20149;-88
2022/03/21 17:37:18;;;;;;;11.57;4.97;;;;;;;;;;6319390;22;20165;-88
2022/03/21 17:40:23;;;;;;;12.20;4.82;;;;;;;;;;6318340;22;20312;-87
2022/03/21 17:43:30;;;;;;;14.93;7.30;;;;;;;;;;6302934;22;20169;-87
2022/03/21 17:46:36;;;;;;;12.35;6.22;;;;;;;;;;6316287;22;20161;-88
2022/03/21 17:49:40;;;;;;;13.88;5.70;;;;;;;;;;6301315;22;20192;-88
2022/03/21 17:52:47;;;;;;;11.65;5.93;;;;;;;;;;6318885;22;20231;-88
2022/03/21 17:55:52;;;;;;;18.67;7.13;;;;;;;;;;6317503;22;20166;-86
2022/03/21 17:58:57;;;;;;;17.88;5.63;;;;;;;;;;6318036;22;20703;-89
2022/03/21 18:02:03;;;;;;;13.00;6.45;;;;;;;;;;6300116;22;20164;-87
2022/03/21 18:05:21;;;;;;;20.63;6.90;;;;;;;;;;6315510;22;20181;-86
2022/03/21 18:08:28;;;;;;;15.15;6.10;;;;;;;;;;6317190;22;20165;-87
2022/03/21 18:11:34;;;;;;;14.35;6.13;;;;;;;;;;6297230;22;20173;-86
2022/03/21 18:14:39;;;;;;;13.70;6.30;;;;;;;;;;6316519;22;20168;-87
2022/03/21 18:17:48;;;;;;;12.10;5.63;;;;;;;;;;6318159;22;20604;-88
2022/03/21 18:20:54;;;;;;;11.43;6.68;;;;;;;;;;6297896;22;20654;-85
2022/03/21 18:24:00;;;;;;;14.52;6.50;;;;;;;;;;6299808;22;20152;-89
2022/03/21 18:27:06;;;;;;;18.50;7.03;;;;;;;;;;6316668;22;20166;-88
2022/03/21 18:30:11;;;;;;;13.45;5.60;;;;;;;;;;6319061;22;20169;-87
2022/03/21 18:33:16;;;;;;;14.10;6.50;;;;;;;;;;6315299;22;20615;-85
2022/03/21 18:36:21;;;;;;;12.02;6.05;;;;;;;;;;6298097;22;20240;-86
2022/03/21 18:39:28;;;;;;;13.27;6.13;;;;;;;;;;6317814;22;20524;-88
2022/03/21 18:42:34;;;;;;;18.75;7.72;;;;;;;;;;6317369;22;20173;-87
2022/03/21 18:45:42;;;;;;;10.47;5.40;;;;;;;;;;6299128;22;20169;-87
2022/03/21 18:48:47;;;;;;;10.90;5.10;;;;;;;;;;6298961;22;20166;-87
2022/03/21 18:51:52;;;;;;;13.73;6.00;;;;;;;;;;6317794;22;20173;-90
2022/03/21 18:55:00;;;;;;;16.33;6.20;;;;;;;;;;6316695;22;20215;-85
2022/03/21 18:58:06;;;;;;;15.17;6.80;;;;;;;;;;6318867;22;20173;-87
2022/03/21 19:01:13;;;;;;;15.37;7.80;;;;;;;;;;6318927;22;20193;-86
2022/03/21 19:04:18;;;;;;;16.90;7.40;;;;;;;;;;6318287;22;20169;-88
2022/03/21 19:07:24;;;;;;;15.77;7.00;;;;;;;;;;6320602;22;20169;-86
2022/03/21 19:10:30;;;;;;;11.70;5.83;;;;;;;;;;6300783;22;20165;-87
2022/03/21 19:13:36;;;;;;;17.10;6.73;;;;;;;;;;6318580;22;20153;-88
2022/03/21 19:17:08;;;;;;;19.67;7.40;;;;;;;;;;6317021;22;20169;-86
2022/03/21 19:20:14;;;;;;;17.60;7.60;;;;;;;;;;6316634;22;20192;-88
2022/03/21 19:23:19;;;;;;;20.23;7.37;;;;;;;;;;6300413;22;20164;-88
2022/03/21 19:26:26;;;;;;;14.80;7.20;;;;;;;;;;6322332;22;20168;-86
2022/03/21 19:29:31;;;;;;;21.27;8.97;;;;;;;;;;6327570;22;20243;-87
2022/03/21 19:32:37;;;;;;;17.73;7.10;;;;;;;;;;6323423;22;20176;-88
2022/03/21 19:35:47;;;;;;;15.77;6.50;;;;;;;;;;6322668;22;20169;-89
2022/03/21 19:38:53;;;;;;;18.23;7.97;;;;;;;;;;6305030;22;20165;-89
2022/03/21 19:42:00;;;;;;;19.73;10.90;;;;;;;;;;6321512;22;20312;-87
2022/03/21 19:45:09;;;;;;;13.47;7.20;;;;;;;;;;6303660;22;20148;-87
2022/03/21 19:48:14;;;;;;;18.80;7.00;;;;;;;;;;6302213;22;20178;-88
2022/03/21 19:51:19;;;;;;;15.53;6.67;;;;;;;;;;6319510;22;20252;-87
2022/03/21 19:54:25;;;;;;;16.63;7.37;;;;;;;;;;6301105;22;20247;-88
2022/03/21 19:57:32;;;;;;;14.27;7.37;;;;;;;;;;6299429;22;20173;-88
2022/03/21 20:00:38;;;;;;;18.17;8.10;;;;;;;;;;6315846;22;20192;-86
2022/03/21 20:03:44;;;;;;;17.30;7.90;;;;;;;;;;6316890;22;20169;-87
2022/03/21 20:06:49;;;;;;;27.57;10.07;;;;;;;;;;6299069;22;20161;-88
2022/03/21 20:09:54;;;;;;;27.50;9.90;;;;;;;;;;6299485;22;20283;-89
2022/03/21 20:13:01;;;;;;;21.90;8.43;;;;;;;;;;6299651;22;20176;-86
2022/03/21 20:16:08;;;;;;;20.13;8.00;;;;;;;;;;6314351;22;20169;-85
2022/03/21 20:19:13;;;;;;;29.30;8.60;;;;;;;;;;6297266;22;20604;-86
2022/03/21 20:22:18;;;;;;;22.97;7.97;;;;;;;;;;6314039;22;20683;-85
2022/03/21 20:25:27;;;;;;;21.53;7.60;;;;;;;;;;6312736;22;20168;-85
2022/03/21 20:28:33;;;;;;;18.03;8.43;;;;;;;;;;6316151;22;20169;-86
2022/03/21 20:31:38;;;;;;;22.33;9.07;;;;;;;;;;6295259;22;20254;-85
2022/03/21 20:34:44;;;;;;;23.07;8.50;;;;;;;;;;6295978;22;20265;-86
2022/03/21 20:37:55;;;;;;;22.27;8.47;;;;;;;;;;6312919;22;20177;-88
2022/03/21 20:41:00;;;;;;;22.90;7.73;;;;;;;;;;6296267;22;20184;-89
2022/03/21 20:44:07;;;;;;;18.23;7.20;;;;;;;;;;6314585;22;20169;-86
2022/03/21 20:47:16;;;;;;;27.37;8.20;;;;;;;;;;6297707;22;20169;-89
2022/03/21 20:50:24;;;;;;;20.13;8.33;;;;;;;;;;6314578;22;20181;-87
2022/03/21 20:53:29;;;;;;;21.47;8.67;;;;;;;;;;6295951;22;20173;-88
2022/03/21 20:56:35;;;;;;;17.23;8.17;;;;;;;;;;6317098;22;20168;-87
2022/03/21 20:59:44;;;;;;;20.07;8.63;;;;;;;;;;6316569;22;20616;-87
2022/03/21 21:02:50;;;;;;;19.20;7.50;;;;;;;;;;6318995;22;20165;-86
2022/03/21 21:05:55;;;;;;;21.60;8.10;;;;;;;;;;6317422;22;20173;-87
2022/03/21 21:09:00;;;;;;;18.73;7.93;;;;;;;;;;6317054;22;20169;-86
2022/03/21 21:12:06;;;;;;;18.13;7.23;;;;;;;;;;6316350;22;20169;-86
2022/03/21 21:15:13;;;;;;;18.33;8.87;;;;;;;;;;6297341;22;20648;-87
2022/03/21 21:18:18;;;;;;;17.30;7.97;;;;;;;;;;6316869;22;20355;-87
2022/03/21 21:21:25;;;;;;;21.33;7.47;;;;;;;;;;6297019;22;20261;-87
2022/03/21 21:24:30;;;;;;;20.33;8.33;;;;;;;;;;6316579;22;20164;-84
2022/03/21 21:27:36;;;;;;;17.40;7.57;;;;;;;;;;6320723;22;20553;-87
2022/03/21 21:30:42;;;;;;;18.00;7.67;;;;;;;;;;6300739;22;20180;-87
2022/03/21 21:33:47;;;;;;;17.57;6.30;;;;;;;;;;6298131;22;20284;-88
2022/03/21 21:36:53;;;;;;;16.27;6.97;;;;;;;;;;6316557;22;20166;-85
2022/03/21 21:40:02;;;;;;;22.77;8.20;;;;;;;;;;6298472;22;20240;-87
2022/03/21 21:43:07;;;;;;;18.47;8.50;;;;;;;;;;6298756;22;20484;-87
2022/03/21 21:46:14;;;;;;;21.23;7.67;;;;;;;;;;6298458;22;20176;-88
2022/03/21 21:49:19;;;;;;;37.87;11.40;;;;;;;;;;6315927;22;20200;-90
2022/03/21 21:52:24;;;;;;;22.77;8.93;;;;;;;;;;6298697;22;20280;-86
2022/03/21 21:55:30;;;;;;;23.20;9.10;;;;;;;;;;6315196;22;20169;-87
2022/03/21 21:58:34;;;;;;;61.53;18.60;;;;;;;;;;6315393;22;20173;-86
2022/03/21 22:01:41;;;;;;;33.17;10.73;;;;;;;;;;6295214;22;20526;-87